Time;durP1;ratioP1;P1;durP2;ratioP2;P2;SDS_P1;SDS_P2;PMS_P1;PMS_P2;Temp;Humidity;BMP_temperature;BMP_pressure;BME280_temperature;BME280_humidity;BME280_pressure;Samples;Min_cycle;Max_cycle;Signal;HPM_P1;HPM_P2
2021/08/27 00:01:42;;;;;;;4.00;2.13;;;;;;;;;;5033071;28;20515;-61
2021/08/27 00:04:09;;;;;;;3.27;2.00;;;;;;;;;;5033118;28;20930;-61
2021/08/27 00:06:37;;;;;;;3.53;1.83;;;;;;;;;;5033187;28;20495;-61
2021/08/27 00:09:04;;;;;;;4.53;1.63;;;;;;;;;;5033464;28;20445;-61
2021/08/27 00:11:31;;;;;;;5.70;2.43;;;;;;;;;;5033408;28;20519;-61
2021/08/27 00:13:58;;;;;;;5.07;2.17;;;;;;;;;;5033149;28;21010;-61
2021/08/27 00:16:26;;;;;;;3.40;1.93;;;;;;;;;;5032932;28;20441;-61
2021/08/27 00:18:54;;;;;;;8.63;2.53;;;;;;;;;;5032920;28;20794;-61
2021/08/27 00:21:21;;;;;;;3.37;1.90;;;;;;;;;;5032996;28;20477;-61
2021/08/27 00:23:49;;;;;;;4.40;2.60;;;;;;;;;;5034679;28;20430;-60
2021/08/27 00:26:16;;;;;;;9.40;2.70;;;;;;;;;;5037272;28;20464;-61
2021/08/27 00:28:43;;;;;;;3.47;1.90;;;;;;;;;;5037304;28;20452;-61
2021/08/27 00:31:10;;;;;;;3.67;2.57;;;;;;;;;;5037446;28;20854;-61
2021/08/27 00:33:38;;;;;;;3.67;2.30;;;;;;;;;;5036840;28;20477;-61
2021/08/27 00:36:06;;;;;;;4.90;2.03;;;;;;;;;;5037167;28;20441;-60
2021/08/27 00:38:33;;;;;;;3.70;2.10;;;;;;;;;;5037336;28;20445;-61
2021/08/27 00:41:01;;;;;;;4.03;2.43;;;;;;;;;;5037298;28;20553;-62
2021/08/27 00:43:28;;;;;;;7.37;2.17;;;;;;;;;;5036849;28;20468;-61
2021/08/27 00:45:55;;;;;;;5.17;2.10;;;;;;;;;;5037083;28;20495;-61
2021/08/27 00:48:22;;;;;;;4.13;1.90;;;;;;;;;;5036922;28;20494;-61
2021/08/27 00:50:51;;;;;;;3.63;1.93;;;;;;;;;;5036835;28;20456;-61
2021/08/27 00:53:19;;;;;;;3.10;2.20;;;;;;;;;;5036732;28;20480;-60
2021/08/27 00:55:47;;;;;;;3.83;2.30;;;;;;;;;;5036829;28;20495;-60
2021/08/27 00:58:14;;;;;;;7.93;2.33;;;;;;;;;;5036718;28;20445;-60
2021/08/27 01:00:41;;;;;;;6.40;2.27;;;;;;;;;;5036737;28;20452;-60
2021/08/27 01:03:09;;;;;;;4.33;1.87;;;;;;;;;;5036516;28;20461;-60
2021/08/27 01:05:40;;;;;;;6.30;2.00;;;;;;;;;;5036573;28;20531;-62
2021/08/27 01:08:12;;;;;;;3.70;1.87;;;;;;;;;;5036784;28;20456;-62
2021/08/27 01:10:42;;;;;;;2.90;2.10;;;;;;;;;;5036907;28;20480;-62
2021/08/27 01:13:13;;;;;;;6.60;2.00;;;;;;;;;;5036546;28;20484;-62
2021/08/27 01:15:47;;;;;;;4.87;2.10;;;;;;;;;;5036499;28;20498;-62
2021/08/27 01:18:16;;;;;;;2.63;2.27;;;;;;;;;;5036092;28;20980;-62
2021/08/27 01:21:02;;;;;;;8.00;2.43;;;;;;;;;;5036298;28;20526;-62
2021/08/27 01:23:33;;;;;;;5.93;2.00;;;;;;;;;;5035872;28;20456;-62
2021/08/27 01:26:01;;;;;;;2.83;1.80;;;;;;;;;;5036725;28;20433;-61
2021/08/27 01:28:29;;;;;;;3.60;1.50;;;;;;;;;;5036148;28;20530;-62
2021/08/27 01:31:04;;;;;;;5.63;1.97;;;;;;;;;;5036106;28;20448;-63
2021/08/27 01:33:32;;;;;;;7.27;2.00;;;;;;;;;;5036259;28;20514;-62
2021/08/27 01:36:02;;;;;;;4.17;2.03;;;;;;;;;;5035256;28;20822;-62
2021/08/27 01:38:33;;;;;;;5.43;1.97;;;;;;;;;;5035644;28;21023;-62
2021/08/27 01:41:00;;;;;;;3.97;1.90;;;;;;;;;;5035948;28;20540;-62
2021/08/27 01:43:29;;;;;;;7.33;2.17;;;;;;;;;;5035515;28;20987;-62
2021/08/27 01:45:59;;;;;;;3.80;2.37;;;;;;;;;;5035751;28;20461;-62
2021/08/27 01:48:26;;;;;;;3.90;2.10;;;;;;;;;;5035721;28;20445;-62
2021/08/27 01:50:54;;;;;;;3.93;2.30;;;;;;;;;;5035382;28;20790;-62
2021/08/27 01:53:24;;;;;;;3.10;2.03;;;;;;;;;;5035330;28;20539;-62
2021/08/27 01:55:51;;;;;;;4.27;1.90;;;;;;;;;;5035225;28;20937;-61
2021/08/27 01:58:19;;;;;;;4.20;2.10;;;;;;;;;;5035591;28;20453;-61
2021/08/27 02:00:46;;;;;;;3.70;1.93;;;;;;;;;;5035494;28;20507;-61
2021/08/27 02:03:13;;;;;;;5.60;2.10;;;;;;;;;;5036454;28;20523;-61
2021/08/27 02:05:41;;;;;;;3.10;1.60;;;;;;;;;;5035420;28;20457;-61
2021/08/27 02:08:09;;;;;;;3.87;2.53;;;;;;;;;;5035349;28;20609;-61
2021/08/27 02:10:38;;;;;;;3.83;1.90;;;;;;;;;;5035061;28;20445;-61
2021/08/27 02:13:06;;;;;;;3.70;1.70;;;;;;;;;;5035120;28;20540;-60
2021/08/27 02:15:33;;;;;;;5.83;1.77;;;;;;;;;;5035206;28;20448;-61
2021/08/27 02:18:00;;;;;;;9.00;2.00;;;;;;;;;;5035118;28;20495;-60
2021/08/27 02:20:28;;;;;;;2.60;1.83;;;;;;;;;;5035147;28;20507;-60
2021/08/27 02:22:56;;;;;;;3.80;1.87;;;;;;;;;;5034604;28;20892;-60
2021/08/27 02:25:27;;;;;;;6.70;2.20;;;;;;;;;;5035048;28;20437;-62
2021/08/27 02:27:56;;;;;;;4.83;1.80;;;;;;;;;;5035008;28;20426;-62
2021/08/27 02:30:23;;;;;;;2.50;1.80;;;;;;;;;;5035013;28;20523;-62
2021/08/27 02:32:52;;;;;;;3.20;1.83;;;;;;;;;;5034530;28;21042;-62
2021/08/27 02:35:19;;;;;;;4.93;2.20;;;;;;;;;;5034877;28;20530;-62
2021/08/27 02:37:47;;;;;;;3.60;2.07;;;;;;;;;;5034861;28;20495;-61
2021/08/27 02:40:15;;;;;;;4.27;2.60;;;;;;;;;;5034826;28;20879;-62
2021/08/27 02:42:42;;;;;;;3.63;2.10;;;;;;;;;;5034803;28;20519;-62
2021/08/27 02:45:12;;;;;;;3.07;2.00;;;;;;;;;;5035183;28;20441;-62
2021/08/27 02:47:39;;;;;;;3.47;2.20;;;;;;;;;;5033613;28;20502;-62
2021/08/27 02:50:07;;;;;;;3.40;2.00;;;;;;;;;;5034634;28;20453;-62
2021/08/27 02:52:36;;;;;;;6.97;2.10;;;;;;;;;;5034155;28;20595;-61
2021/08/27 02:55:05;;;;;;;5.77;2.47;;;;;;;;;;5034159;28;20473;-62
2021/08/27 02:57:33;;;;;;;2.80;1.90;;;;;;;;;;5034499;28;20913;-61
2021/08/27 03:00:02;;;;;;;3.23;2.23;;;;;;;;;;5034136;28;20928;-62
2021/08/27 03:02:31;;;;;;;7.77;2.13;;;;;;;;;;5034320;28;20465;-62
2021/08/27 03:05:02;;;;;;;3.73;1.83;;;;;;;;;;5034208;28;20987;-60
2021/08/27 03:07:30;;;;;;;5.20;2.03;;;;;;;;;;5034515;28;20430;-62
2021/08/27 03:10:00;;;;;;;6.43;2.20;;;;;;;;;;5034120;28;21003;-62
2021/08/27 03:12:33;;;;;;;5.27;1.80;;;;;;;;;;5035030;28;20527;-62
2021/08/27 03:15:01;;;;;;;5.53;2.00;;;;;;;;;;5033804;28;20519;-62
2021/08/27 03:17:33;;;;;;;4.07;2.07;;;;;;;;;;5033770;28;20954;-62
2021/08/27 03:20:03;;;;;;;4.00;2.47;;;;;;;;;;5034057;28;20524;-62
2021/08/27 03:22:32;;;;;;;5.20;2.00;;;;;;;;;;5033483;28;20996;-62
2021/08/27 03:25:02;;;;;;;5.23;2.20;;;;;;;;;;5033622;28;20445;-62
2021/08/27 03:27:32;;;;;;;4.20;2.23;;;;;;;;;;5033615;28;20503;-62
2021/08/27 03:30:02;;;;;;;5.27;1.90;;;;;;;;;;5033907;28;20520;-62
2021/08/27 03:32:31;;;;;;;5.90;1.70;;;;;;;;;;5033776;28;20492;-62
2021/08/27 03:34:59;;;;;;;3.23;2.13;;;;;;;;;;5033709;28;20481;-62
2021/08/27 03:37:26;;;;;;;2.80;1.70;;;;;;;;;;5033862;28;20491;-62
2021/08/27 03:39:54;;;;;;;6.00;2.17;;;;;;;;;;5033706;28;20498;-62
2021/08/27 03:42:22;;;;;;;5.73;2.57;;;;;;;;;;5033303;28;20965;-62
2021/08/27 03:44:50;;;;;;;2.53;1.60;;;;;;;;;;5033639;28;20445;-62
2021/08/27 03:47:17;;;;;;;5.00;2.20;;;;;;;;;;5034155;28;20444;-62
2021/08/27 03:49:48;;;;;;;3.90;1.87;;;;;;;;;;5033500;28;20552;-62
2021/08/27 03:52:16;;;;;;;7.10;2.10;;;;;;;;;;5034269;28;20534;-62
2021/08/27 03:54:44;;;;;;;4.70;3.40;;;;;;;;;;5033394;28;20473;-62
2021/08/27 03:57:12;;;;;;;7.57;1.80;;;;;;;;;;5033505;28;20503;-62
2021/08/27 03:59:40;;;;;;;4.00;1.77;;;;;;;;;;5033056;28;20503;-62
2021/08/27 04:02:07;;;;;;;3.07;2.00;;;;;;;;;;5033228;28;20992;-62
2021/08/27 04:04:35;;;;;;;2.87;2.00;;;;;;;;;;5033861;28;20449;-62
2021/08/27 04:08:30;;;;;;;8.83;2.73;;;;;;;;;;5091639;27;20553;-62
2021/08/27 04:10:58;;;;;;;6.23;2.03;;;;;;;;;;5091395;28;20438;-61
2021/08/27 04:13:25;;;;;;;3.33;1.63;;;;;;;;;;5091253;28;20451;-62
2021/08/27 04:15:53;;;;;;;5.00;2.30;;;;;;;;;;5091421;28;20442;-62
2021/08/27 04:18:20;;;;;;;4.90;2.20;;;;;;;;;;5091284;28;20542;-62
2021/08/27 04:20:48;;;;;;;3.63;2.23;;;;;;;;;;5091447;28;20926;-63
2021/08/27 04:23:15;;;;;;;3.73;2.10;;;;;;;;;;5091012;28;20962;-62
2021/08/27 04:25:43;;;;;;;6.03;2.43;;;;;;;;;;5090482;28;20447;-61
2021/08/27 04:28:11;;;;;;;6.07;2.70;;;;;;;;;;5090345;28;20466;-62
2021/08/27 04:30:38;;;;;;;5.37;2.23;;;;;;;;;;5090705;28;20442;-62
2021/08/27 04:33:06;;;;;;;4.33;2.27;;;;;;;;;;5090489;28;20462;-63
2021/08/27 04:35:33;;;;;;;3.60;2.00;;;;;;;;;;5090665;28;20458;-61
2021/08/27 04:38:00;;;;;;;4.87;2.30;;;;;;;;;;5090510;28;20443;-62
2021/08/27 04:40:28;;;;;;;4.97;1.83;;;;;;;;;;5090556;28;20462;-62
2021/08/27 04:42:56;;;;;;;3.53;2.27;;;;;;;;;;5090283;28;20466;-61
2021/08/27 04:45:24;;;;;;;5.13;2.30;;;;;;;;;;5090680;28;20438;-63
2021/08/27 04:47:51;;;;;;;4.17;2.03;;;;;;;;;;5090665;28;20477;-62
2021/08/27 04:50:18;;;;;;;3.90;2.10;;;;;;;;;;5089975;28;21007;-62
2021/08/27 04:52:45;;;;;;;2.97;2.27;;;;;;;;;;5089753;28;20466;-62
2021/08/27 04:55:12;;;;;;;3.60;1.90;;;;;;;;;;5089736;28;20446;-61
2021/08/27 04:57:40;;;;;;;4.90;3.17;;;;;;;;;;5089666;28;20445;-63
2021/08/27 05:00:10;;;;;;;4.67;1.90;;;;;;;;;;5089864;28;20438;-63
2021/08/27 05:02:38;;;;;;;4.40;2.23;;;;;;;;;;5089460;28;20991;-61
2021/08/27 05:05:06;;;;;;;4.30;2.30;;;;;;;;;;5089472;28;20491;-64
2021/08/27 05:07:33;;;;;;;8.33;2.90;;;;;;;;;;5089216;28;20997;-60
2021/08/27 05:10:00;;;;;;;4.80;2.40;;;;;;;;;;5089338;28;20446;-61
2021/08/27 05:12:28;;;;;;;9.30;2.40;;;;;;;;;;5089572;28;20466;-62
2021/08/27 05:14:55;;;;;;;4.13;2.20;;;;;;;;;;5089284;28;20528;-61
2021/08/27 05:17:24;;;;;;;4.43;2.63;;;;;;;;;;5090041;28;20439;-62
2021/08/27 05:19:51;;;;;;;2.30;2.10;;;;;;;;;;5076163;28;20508;-62
2021/08/27 05:22:18;;;;;;;5.47;2.17;;;;;;;;;;5075577;28;21019;-60
2021/08/27 05:24:46;;;;;;;4.07;2.33;;;;;;;;;;5075647;28;20447;-61
2021/08/27 05:27:13;;;;;;;8.73;2.23;;;;;;;;;;5075876;28;20483;-62
2021/08/27 05:29:40;;;;;;;4.03;2.17;;;;;;;;;;5076016;28;20447;-61
2021/08/27 05:32:08;;;;;;;2.73;1.80;;;;;;;;;;5077044;28;20516;-61
2021/08/27 05:34:37;;;;;;;3.67;2.10;;;;;;;;;;5076282;28;20439;-62
2021/08/27 05:37:05;;;;;;;3.27;2.27;;;;;;;;;;5076155;28;20447;-60
2021/08/27 05:39:32;;;;;;;4.57;2.80;;;;;;;;;;5075827;28;20443;-63
2021/08/27 05:42:00;;;;;;;8.00;3.03;;;;;;;;;;5075556;28;20974;-62
2021/08/27 05:44:27;;;;;;;3.87;2.07;;;;;;;;;;5075681;28;20521;-63
2021/08/27 05:46:55;;;;;;;5.27;2.73;;;;;;;;;;5075075;28;21048;-61
2021/08/27 05:49:22;;;;;;;5.27;2.40;;;;;;;;;;5075614;28;20443;-63
2021/08/27 05:51:52;;;;;;;4.53;2.50;;;;;;;;;;5075147;28;21030;-61
2021/08/27 05:54:19;;;;;;;5.83;2.60;;;;;;;;;;5075476;28;20447;-62
2021/08/27 05:56:46;;;;;;;4.03;2.50;;;;;;;;;;5075412;28;20443;-61
2021/08/27 05:59:13;;;;;;;6.30;2.73;;;;;;;;;;5074959;28;20808;-63
2021/08/27 06:01:41;;;;;;;4.17;2.40;;;;;;;;;;5075329;28;20512;-63
2021/08/27 06:04:08;;;;;;;4.77;2.70;;;;;;;;;;5075558;28;20859;-63
2021/08/27 06:06:35;;;;;;;7.20;2.50;;;;;;;;;;5074825;28;20951;-61
2021/08/27 06:09:05;;;;;;;7.90;2.80;;;;;;;;;;5075174;28;20435;-62
2021/08/27 06:11:35;;;;;;;5.53;3.00;;;;;;;;;;5075277;28;20625;-62
2021/08/27 06:14:03;;;;;;;7.23;2.47;;;;;;;;;;5075107;28;20448;-62
2021/08/27 06:16:30;;;;;;;3.83;2.87;;;;;;;;;;5074586;28;20538;-63
2021/08/27 06:18:58;;;;;;;4.20;2.80;;;;;;;;;;5074814;28;20442;-63
2021/08/27 06:21:25;;;;;;;4.20;2.40;;;;;;;;;;5074711;28;20573;-60
2021/08/27 06:23:53;;;;;;;5.87;2.30;;;;;;;;;;5074436;28;20501;-63
2021/08/27 06:26:22;;;;;;;5.00;2.67;;;;;;;;;;5074597;28;20439;-61
2021/08/27 06:28:49;;;;;;;5.90;2.40;;;;;;;;;;5074159;28;20487;-61
2021/08/27 06:31:16;;;;;;;8.90;3.20;;;;;;;;;;5074642;28;20524;-61
2021/08/27 06:33:44;;;;;;;7.43;2.70;;;;;;;;;;5074195;28;20443;-62
2021/08/27 06:36:11;;;;;;;6.30;2.30;;;;;;;;;;5074166;28;20906;-62
2021/08/27 06:38:38;;;;;;;7.83;2.70;;;;;;;;;;5074337;28;20450;-61
2021/08/27 06:41:07;;;;;;;6.17;2.67;;;;;;;;;;5074076;28;20488;-61
2021/08/27 06:43:36;;;;;;;6.60;2.17;;;;;;;;;;5074720;28;20811;-63
2021/08/27 06:46:05;;;;;;;7.17;2.70;;;;;;;;;;5073818;28;20939;-62
2021/08/27 06:48:32;;;;;;;2.80;2.03;;;;;;;;;;5073949;28;20474;-61
2021/08/27 06:51:00;;;;;;;6.50;2.97;;;;;;;;;;5074058;28;20801;-62
2021/08/27 06:53:27;;;;;;;3.17;2.20;;;;;;;;;;5073634;28;20931;-60
2021/08/27 06:55:55;;;;;;;5.83;2.70;;;;;;;;;;5074185;28;20447;-62
2021/08/27 06:58:22;;;;;;;6.67;2.60;;;;;;;;;;5073959;28;20446;-62
2021/08/27 07:00:51;;;;;;;4.70;2.50;;;;;;;;;;5074297;28;20500;-62
2021/08/27 07:03:18;;;;;;;4.30;2.80;;;;;;;;;;5073691;28;21009;-62
2021/08/27 07:05:45;;;;;;;8.83;2.63;;;;;;;;;;5073773;28;20439;-61
2021/08/27 07:08:13;;;;;;;6.23;3.10;;;;;;;;;;5073356;28;20537;-62
2021/08/27 07:10:40;;;;;;;6.10;2.80;;;;;;;;;;5074217;28;20458;-62
2021/08/27 07:13:08;;;;;;;5.13;2.53;;;;;;;;;;5073615;28;20470;-63
2021/08/27 07:15:35;;;;;;;4.90;2.77;;;;;;;;;;5073750;28;20439;-60
2021/08/27 07:18:04;;;;;;;4.73;3.20;;;;;;;;;;5073648;28;20451;-61
2021/08/27 07:20:31;;;;;;;5.50;2.97;;;;;;;;;;5073519;28;20831;-63
2021/08/27 07:22:59;;;;;;;6.67;3.30;;;;;;;;;;5073399;28;20513;-61
2021/08/27 07:25:26;;;;;;;5.80;3.53;;;;;;;;;;5074702;28;20455;-61
2021/08/27 07:27:53;;;;;;;5.00;3.53;;;;;;;;;;5075275;28;21060;-63
2021/08/27 07:30:21;;;;;;;7.50;4.43;;;;;;;;;;5076680;28;20440;-63
2021/08/27 07:32:48;;;;;;;6.30;3.13;;;;;;;;;;5075269;28;20471;-61
2021/08/27 07:35:17;;;;;;;6.03;3.47;;;;;;;;;;5076462;28;20867;-64
2021/08/27 07:37:44;;;;;;;3.70;3.30;;;;;;;;;;5074000;28;20435;-62
2021/08/27 07:40:13;;;;;;;7.20;3.70;;;;;;;;;;5074441;28;21040;-63
2021/08/27 07:42:40;;;;;;;10.80;3.37;;;;;;;;;;5073956;28;20878;-62
2021/08/27 07:45:08;;;;;;;4.30;3.40;;;;;;;;;;5073494;28;20439;-63
2021/08/27 07:47:35;;;;;;;6.43;3.47;;;;;;;;;;5073764;28;20474;-61
2021/08/27 07:50:03;;;;;;;5.57;3.80;;;;;;;;;;5073497;28;20526;-64
2021/08/27 07:52:31;;;;;;;4.70;3.77;;;;;;;;;;5074212;28;20472;-63
2021/08/27 07:54:59;;;;;;;4.20;3.67;;;;;;;;;;5074558;28;20512;-64
2021/08/27 07:57:26;;;;;;;6.27;4.33;;;;;;;;;;5073700;28;20449;-65
2021/08/27 07:59:53;;;;;;;7.60;4.07;;;;;;;;;;5074156;28;20447;-63
2021/08/27 08:02:20;;;;;;;7.70;4.97;;;;;;;;;;5073751;28;20463;-63
2021/08/27 08:04:48;;;;;;;5.97;3.83;;;;;;;;;;5073880;28;20446;-63
2021/08/27 08:07:15;;;;;;;9.17;4.70;;;;;;;;;;5073136;28;20915;-63
2021/08/27 08:09:44;;;;;;;6.20;4.40;;;;;;;;;;5073731;28;20447;-62
2021/08/27 08:12:11;;;;;;;6.20;4.30;;;;;;;;;;5076177;28;20463;-63
2021/08/27 08:14:38;;;;;;;8.83;4.20;;;;;;;;;;5076754;28;20524;-63
2021/08/27 08:17:06;;;;;;;10.37;5.10;;;;;;;;;;5076270;28;20454;-63
2021/08/27 08:19:33;;;;;;;8.23;4.83;;;;;;;;;;5076329;28;20513;-64
2021/08/27 08:22:00;;;;;;;9.40;4.80;;;;;;;;;;5075742;28;20877;-62
2021/08/27 08:24:28;;;;;;;8.93;4.63;;;;;;;;;;5074844;28;20447;-61
2021/08/27 08:26:56;;;;;;;9.63;4.80;;;;;;;;;;5075047;28;20439;-62
2021/08/27 08:29:23;;;;;;;5.47;4.40;;;;;;;;;;5069763;22;20500;-56
2021/08/27 08:31:52;;;;;;;7.10;4.87;;;;;;;;;;5032869;28;20515;-56
2021/08/27 08:34:20;;;;;;;7.27;4.93;;;;;;;;;;5032941;28;20536;-57
2021/08/27 08:36:47;;;;;;;6.03;3.93;;;;;;;;;;5032907;28;20453;-56
2021/08/27 08:39:14;;;;;;;6.33;4.20;;;;;;;;;;5032776;28;20853;-56
2021/08/27 08:41:42;;;;;;;9.80;4.53;;;;;;;;;;5032536;28;20917;-56
2021/08/27 08:44:10;;;;;;;6.47;4.60;;;;;;;;;;5032736;28;20482;-56
2021/08/27 08:46:38;;;;;;;6.23;4.53;;;;;;;;;;5032432;28;20499;-56
2021/08/27 08:49:05;;;;;;;4.30;3.57;;;;;;;;;;5032548;28;20531;-56
2021/08/27 08:51:33;;;;;;;8.60;3.77;;;;;;;;;;5032928;28;20585;-55
2021/08/27 08:54:01;;;;;;;3.47;3.27;;;;;;;;;;5034000;28;20507;-56
2021/08/27 08:56:29;;;;;;;5.20;3.47;;;;;;;;;;5036414;28;20452;-56
2021/08/27 08:58:59;;;;;;;5.33;3.90;;;;;;;;;;5036252;28;20452;-56
2021/08/27 09:01:28;;;;;;;4.63;4.00;;;;;;;;;;5036672;28;20465;-55
2021/08/27 09:03:56;;;;;;;6.60;4.20;;;;;;;;;;5036295;28;20452;-56
2021/08/27 09:06:23;;;;;;;6.03;4.00;;;;;;;;;;5036416;28;20452;-56
2021/08/27 09:08:52;;;;;;;6.20;3.17;;;;;;;;;;5036039;28;20534;-56
2021/08/27 09:11:20;;;;;;;5.43;3.13;;;;;;;;;;5036450;28;20945;-56
2021/08/27 09:13:47;;;;;;;3.90;3.40;;;;;;;;;;5036183;28;20441;-56
2021/08/27 09:16:15;;;;;;;6.13;3.37;;;;;;;;;;5035984;28;20968;-55
2021/08/27 09:18:44;;;;;;;3.20;2.90;;;;;;;;;;5036238;28;20855;-55
2021/08/27 09:21:30;;;;;;;4.07;3.10;;;;;;;;;;5036667;28;20511;-56
2021/08/27 09:24:17;;;;;;;4.83;2.90;;;;;;;;;;5035950;28;20445;-55
2021/08/27 09:26:45;;;;;;;5.57;2.60;;;;;;;;;;5036312;28;20445;-56
2021/08/27 09:29:12;;;;;;;3.77;3.00;;;;;;;;;;5036090;28;21074;-56
2021/08/27 09:31:42;;;;;;;4.23;3.47;;;;;;;;;;5036378;28;20441;-55
2021/08/27 09:34:10;;;;;;;5.87;2.90;;;;;;;;;;5035517;28;20830;-56
2021/08/27 09:36:37;;;;;;;3.30;3.10;;;;;;;;;;5036095;28;20852;-57
2021/08/27 09:39:07;;;;;;;3.03;2.80;;;;;;;;;;5035489;28;20469;-55
2021/08/27 09:41:35;;;;;;;3.30;2.33;;;;;;;;;;5035799;28;20510;-55
2021/08/27 09:44:03;;;;;;;3.90;2.67;;;;;;;;;;5035280;28;20499;-55
2021/08/27 09:46:34;;;;;;;4.03;2.60;;;;;;;;;;5035408;28;20476;-55
2021/08/27 09:49:02;;;;;;;4.63;2.80;;;;;;;;;;5035980;28;20481;-55
2021/08/27 09:51:45;;;;;;;3.57;2.60;;;;;;;;;;5035469;28;20460;-55
2021/08/27 09:54:21;;;;;;;5.33;3.00;;;;;;;;;;5035393;28;20483;-55
2021/08/27 09:56:51;;;;;;;4.97;3.50;;;;;;;;;;5035136;28;20937;-56
2021/08/27 09:59:18;;;;;;;3.03;2.57;;;;;;;;;;5035135;28;20472;-56
2021/08/27 10:01:51;;;;;;;2.93;2.60;;;;;;;;;;5035224;28;20453;-57
2021/08/27 10:04:19;;;;;;;3.30;2.60;;;;;;;;;;5034645;28;21003;-57
2021/08/27 10:06:47;;;;;;;6.53;2.47;;;;;;;;;;5034481;28;20874;-57
2021/08/27 10:09:15;;;;;;;2.60;2.40;;;;;;;;;;5035059;28;20488;-57
2021/08/27 10:11:42;;;;;;;4.53;3.10;;;;;;;;;;5034989;28;20527;-56
2021/08/27 10:14:09;;;;;;;5.03;3.27;;;;;;;;;;5034606;28;20857;-57
2021/08/27 10:16:37;;;;;;;5.40;3.63;;;;;;;;;;5034856;28;20499;-54
2021/08/27 10:19:05;;;;;;;4.50;3.73;;;;;;;;;;5034171;28;21081;-56
2021/08/27 10:21:33;;;;;;;4.53;4.10;;;;;;;;;;5034291;28;20453;-56
2021/08/27 10:24:02;;;;;;;4.73;3.77;;;;;;;;;;5034780;28;20449;-56
2021/08/27 10:26:29;;;;;;;6.00;4.23;;;;;;;;;;5035862;28;20464;-57
2021/08/27 10:29:05;;;;;;;3.70;3.40;;;;;;;;;;5034123;28;20493;-57
2021/08/27 10:31:43;;;;;;;2.80;2.60;;;;;;;;;;5034967;28;20436;-58
2021/08/27 10:34:10;;;;;;;3.77;3.13;;;;;;;;;;5034642;28;20440;-58
2021/08/27 10:36:42;;;;;;;4.50;3.60;;;;;;;;;;5034224;28;20817;-58
2021/08/27 10:39:11;;;;;;;3.23;2.93;;;;;;;;;;5034131;28;20460;-57
2021/08/27 10:41:39;;;;;;;3.27;2.67;;;;;;;;;;5034844;28;20457;-56
2021/08/27 10:44:07;;;;;;;3.43;2.50;;;;;;;;;;5033919;28;20937;-57
2021/08/27 10:46:53;;;;;;;3.20;2.27;;;;;;;;;;5033940;28;20823;-57
2021/08/27 10:49:22;;;;;;;1.93;1.77;;;;;;;;;;5024396;28;20934;-57
2021/08/27 10:51:53;;;;;;;2.73;2.30;;;;;;;;;;5033643;28;20453;-57
2021/08/27 10:54:22;;;;;;;3.27;2.33;;;;;;;;;;5034017;28;20443;-57
2021/08/27 10:56:50;;;;;;;2.43;2.23;;;;;;;;;;5033669;28;21000;-57
2021/08/27 10:59:18;;;;;;;2.60;2.40;;;;;;;;;;5033569;28;20511;-56
2021/08/27 11:01:46;;;;;;;3.13;2.30;;;;;;;;;;5033755;28;20445;-56
2021/08/27 11:04:16;;;;;;;3.00;2.30;;;;;;;;;;5033485;28;20531;-57
2021/08/27 11:06:44;;;;;;;2.37;2.10;;;;;;;;;;5033574;28;20814;-56
2021/08/27 11:09:15;;;;;;;2.83;2.60;;;;;;;;;;5033892;28;20489;-56
2021/08/27 11:11:44;;;;;;;2.57;2.37;;;;;;;;;;5033667;28;20787;-58
2021/08/27 11:14:15;;;;;;;2.30;2.10;;;;;;;;;;5033717;28;20449;-58
2021/08/27 11:16:42;;;;;;;4.37;2.50;;;;;;;;;;5032799;28;20548;-58
2021/08/27 11:19:24;;;;;;;4.03;2.13;;;;;;;;;;5033475;28;20461;-58
2021/08/27 11:21:56;;;;;;;2.20;2.00;;;;;;;;;;5034286;28;20848;-58
2021/08/27 11:24:24;;;;;;;3.03;2.07;;;;;;;;;;5033928;28;20429;-57
2021/08/27 11:27:00;;;;;;;2.60;2.10;;;;;;;;;;5034833;28;20851;-59
2021/08/27 11:29:28;;;;;;;2.87;1.87;;;;;;;;;;5033239;28;20484;-58
2021/08/27 11:31:55;;;;;;;2.70;2.20;;;;;;;;;;5033103;28;20449;-58
2021/08/27 11:34:24;;;;;;;1.90;1.77;;;;;;;;;;5033142;28;20456;-57
2021/08/27 11:36:52;;;;;;;2.07;1.90;;;;;;;;;;5033298;28;20942;-56
2021/08/27 11:39:19;;;;;;;2.97;2.30;;;;;;;;;;5033272;28;20488;-57
2021/08/27 11:41:47;;;;;;;2.50;2.30;;;;;;;;;;5033191;28;20449;-55
2021/08/27 11:44:19;;;;;;;2.53;2.33;;;;;;;;;;5033762;28;20449;-57
2021/08/27 11:46:50;;;;;;;3.67;2.27;;;;;;;;;;5033286;28;20480;-57
2021/08/27 11:49:35;;;;;;;3.67;2.83;;;;;;;;;;5033421;28;20495;-57
2021/08/27 11:52:12;;;;;;;4.53;2.53;;;;;;;;;;5033431;28;20520;-57
2021/08/27 11:54:40;;;;;;;6.20;2.30;;;;;;;;;;5033470;28;20425;-57
2021/08/27 11:57:15;;;;;;;3.00;2.70;;;;;;;;;;5033698;28;20445;-57
2021/08/27 11:59:44;;;;;;;3.37;2.60;;;;;;;;;;5033344;28;20465;-57
2021/08/27 12:02:18;;;;;;;2.40;2.07;;;;;;;;;;5033439;28;20448;-57
2021/08/27 12:04:46;;;;;;;2.53;2.23;;;;;;;;;;5033143;28;20441;-57
2021/08/27 12:07:14;;;;;;;2.37;2.00;;;;;;;;;;5032571;28;20441;-57
2021/08/27 12:09:42;;;;;;;3.67;2.17;;;;;;;;;;5032611;28;20531;-57
2021/08/27 12:12:10;;;;;;;5.20;2.10;;;;;;;;;;5033509;28;20445;-56
2021/08/27 12:14:54;;;;;;;3.57;2.30;;;;;;;;;;5032912;28;20516;-57
2021/08/27 12:17:22;;;;;;;2.63;2.10;;;;;;;;;;5032756;28;20449;-57
2021/08/27 12:19:52;;;;;;;3.07;1.83;;;;;;;;;;5032400;28;20976;-56
2021/08/27 12:22:21;;;;;;;2.60;2.10;;;;;;;;;;5033283;28;20444;-57
2021/08/27 12:24:49;;;;;;;3.80;2.50;;;;;;;;;;5032537;28;20948;-57
2021/08/27 12:27:16;;;;;;;3.90;2.03;;;;;;;;;;5033043;28;20948;-57
2021/08/27 12:29:43;;;;;;;3.27;2.10;;;;;;;;;;5035112;28;20550;-57
2021/08/27 12:32:16;;;;;;;2.23;2.03;;;;;;;;;;5036449;28;20440;-57
2021/08/27 12:34:47;;;;;;;4.13;2.67;;;;;;;;;;5036405;28;20488;-57
2021/08/27 12:37:15;;;;;;;1.83;1.73;;;;;;;;;;5036590;28;20524;-57
2021/08/27 12:39:43;;;;;;;2.63;2.13;;;;;;;;;;5036184;28;20527;-57
2021/08/27 12:42:19;;;;;;;2.40;1.93;;;;;;;;;;5036291;28;20495;-57
2021/08/27 12:44:59;;;;;;;2.70;1.80;;;;;;;;;;5035970;28;20441;-58
2021/08/27 12:47:31;;;;;;;2.17;1.97;;;;;;;;;;5036214;28;20487;-58
2021/08/27 12:49:59;;;;;;;1.63;1.47;;;;;;;;;;5036377;28;20535;-58
2021/08/27 12:52:27;;;;;;;1.50;1.23;;;;;;;;;;5035963;28;20449;-57
2021/08/27 12:54:54;;;;;;;2.70;2.00;;;;;;;;;;5035900;28;20444;-59
2021/08/27 12:57:21;;;;;;;2.67;1.87;;;;;;;;;;5036126;28;20440;-58
2021/08/27 12:59:55;;;;;;;2.00;1.80;;;;;;;;;;5035969;28;20461;-57
2021/08/27 13:02:23;;;;;;;3.67;2.13;;;;;;;;;;5036150;28;20453;-57
2021/08/27 13:04:53;;;;;;;2.27;2.07;;;;;;;;;;5035568;28;20916;-57
2021/08/27 13:07:24;;;;;;;2.60;2.20;;;;;;;;;;5035556;28;20840;-56
2021/08/27 13:09:53;;;;;;;2.43;2.23;;;;;;;;;;5035325;28;20480;-58
2021/08/27 13:12:31;;;;;;;3.60;2.37;;;;;;;;;;5035622;28;20452;-57
2021/08/27 13:14:59;;;;;;;3.20;2.50;;;;;;;;;;5035651;28;20444;-57
2021/08/27 13:17:26;;;;;;;3.13;2.83;;;;;;;;;;5035451;28;20542;-57
2021/08/27 13:19:56;;;;;;;2.80;2.50;;;;;;;;;;5035322;28;20468;-57
2021/08/27 13:22:24;;;;;;;3.20;2.90;;;;;;;;;;5035724;28;20456;-58
2021/08/27 13:24:55;;;;;;;3.33;2.90;;;;;;;;;;5035663;28;20855;-57
2021/08/27 13:27:22;;;;;;;3.47;3.13;;;;;;;;;;5035433;28;20445;-57
2021/08/27 13:29:49;;;;;;;3.13;2.47;;;;;;;;;;5035321;28;20992;-58
2021/08/27 13:32:20;;;;;;;3.50;2.40;;;;;;;;;;5035797;28;20502;-57
2021/08/27 13:34:48;;;;;;;3.50;2.53;;;;;;;;;;5035562;28;20487;-57
2021/08/27 13:37:16;;;;;;;3.30;3.00;;;;;;;;;;5035582;28;20449;-57
2021/08/27 13:39:44;;;;;;;4.07;3.67;;;;;;;;;;5034836;28;20973;-57
2021/08/27 13:42:11;;;;;;;4.00;3.70;;;;;;;;;;5036107;28;20528;-57
2021/08/27 13:44:38;;;;;;;3.47;3.17;;;;;;;;;;5035272;28;20857;-57
2021/08/27 13:47:05;;;;;;;4.30;3.87;;;;;;;;;;5034998;28;20816;-57
2021/08/27 13:49:33;;;;;;;4.30;3.90;;;;;;;;;;5035509;28;20488;-58
2021/08/27 13:52:00;;;;;;;4.50;4.10;;;;;;;;;;5035267;28;20449;-58
2021/08/27 13:54:28;;;;;;;3.97;3.67;;;;;;;;;;5035185;28;20448;-57
2021/08/27 13:56:56;;;;;;;4.10;3.80;;;;;;;;;;5035237;28;20453;-57
2021/08/27 13:59:23;;;;;;;4.90;3.70;;;;;;;;;;5034936;28;20992;-57
2021/08/27 14:01:50;;;;;;;4.50;4.10;;;;;;;;;;5035092;28;20456;-57
2021/08/27 14:04:17;;;;;;;3.70;3.40;;;;;;;;;;5035142;28;20456;-58
2021/08/27 14:06:45;;;;;;;3.87;3.13;;;;;;;;;;5035109;28;20503;-58
2021/08/27 14:09:12;;;;;;;3.60;3.30;;;;;;;;;;5034338;28;20477;-59
2021/08/27 14:11:41;;;;;;;5.13;3.30;;;;;;;;;;5035049;28;20773;-57
2021/08/27 14:14:08;;;;;;;4.37;3.97;;;;;;;;;;5034495;28;20453;-56
2021/08/27 14:16:37;;;;;;;3.60;3.30;;;;;;;;;;5034854;28;20878;-57
2021/08/27 14:19:04;;;;;;;4.00;3.70;;;;;;;;;;5034329;28;20473;-59
2021/08/27 14:21:31;;;;;;;5.07;3.43;;;;;;;;;;5034546;28;20437;-58
2021/08/27 14:23:58;;;;;;;3.23;3.03;;;;;;;;;;5034783;28;20515;-57
2021/08/27 14:26:26;;;;;;;4.47;2.83;;;;;;;;;;5034767;28;20519;-57
2021/08/27 14:28:54;;;;;;;4.00;2.83;;;;;;;;;;5068791;22;20492;-62
2021/08/27 14:31:24;;;;;;;3.90;3.17;;;;;;;;;;5033795;28;20519;-62
2021/08/27 14:33:57;;;;;;;3.23;2.60;;;;;;;;;;5034442;28;20525;-62
2021/08/27 14:36:25;;;;;;;3.93;3.03;;;;;;;;;;5034466;28;20483;-62
2021/08/27 14:38:52;;;;;;;3.47;3.10;;;;;;;;;;5035029;28;20547;-62
2021/08/27 14:41:20;;;;;;;4.13;3.70;;;;;;;;;;5034201;28;20445;-62
2021/08/27 14:43:47;;;;;;;4.00;3.70;;;;;;;;;;5034829;28;20438;-63
2021/08/27 14:46:16;;;;;;;3.43;3.13;;;;;;;;;;5034173;28;20495;-63
2021/08/27 14:48:43;;;;;;;4.30;3.53;;;;;;;;;;5034343;28;20864;-62
2021/08/27 14:51:10;;;;;;;2.70;2.50;;;;;;;;;;5033067;28;20527;-62
2021/08/27 14:53:37;;;;;;;3.30;2.37;;;;;;;;;;5034195;28;20872;-63